Flight Track Log - Related Links

Times and Time Zones

All times are in EDT time to prevent confusion due to time zone crossing. See the EJA922 flight status page for this flight to view local times or setup timezone preferences in your user account.

Time Position Orientation Groundspeed Altitude Reporting Facility
EDT Latitude Longitude Course Direction KTS MPH feet Rate Location/Type
Wed 17:35:52 36.2467 -80.3469 256° West 266 306 8,200  Level Atlanta Center
Wed 17:36:52 36.2969 -80.4167 312° West 271 312 10,700 2,200 Climbing Atlanta Center
Wed 17:37:52 36.3533 -80.4917 313° West 304 350 12,600 2,050 Climbing Atlanta Center
Wed 17:38:52 36.4292 -80.5939 313° West 344 396 14,800 1,950 Climbing Atlanta Center
Wed 17:39:52 36.4589 -80.6933 290° West 344 396 16,500 1,800 Climbing Atlanta Center
Wed 17:40:00 36.5353 -80.9073 256° West  Level FlightAware Approximate
Wed 17:40:52 36.4375 -80.8208 258° West 355 409 18,400  Level Atlanta Center
Wed 17:41:00 36.5053 -81.0567 256° West  Level FlightAware Approximate
Wed 17:41:52 36.4197 -80.9428 260° West 366 421 20,400  Level Atlanta Center
Wed 17:42:52 36.3997 -81.0647 259° West 366 421 22,400 2,000 Climbing Atlanta Center
Wed 17:43:52 36.3564 -81.1744 244° Southwest 355 409 24,400 1,750 Climbing Atlanta Center
Wed 17:44:52 36.3006 -81.2847 238° Southwest 369 425 25,900 1,300 Climbing Atlanta Center
Wed 17:45:52 36.2425 -81.3975 237° Southwest 386 444 27,000 550 Climbing Atlanta Center
Wed 17:46:52 36.2161 -81.5294 256° West 402 463 27,000 350 Level Atlanta Center
Wed 17:47:52 36.1961 -81.6794 261° West 433 498 27,700 900 Climbing Atlanta Center
Wed 17:48:52 36.1783 -81.8369 262° West 438 504 28,800 1,100 Climbing Atlanta Center
Wed 17:49:52 36.1600 -81.9864 261° West 433 498 29,900 1,100 Climbing Atlanta Center
Wed 17:50:52 36.1414 -82.1336 261° West 439 505 31,000 1,250 Climbing Atlanta Center
Wed 17:51:52 36.1186 -82.2806 259° West 439 505 32,400 1,500 Climbing Atlanta Center
Wed 17:52:52 36.0997 -82.4250 261° West 439 505 34,000 1,800 Climbing Atlanta Center
Wed 17:53:52 36.0808 -82.5692 261° West 429 494 36,000 1,650 Climbing Atlanta Center
Wed 17:54:52 36.0636 -82.7081 261° West 429 494 37,300 1,150 Climbing Atlanta Center
Wed 17:55:52 36.0442 -82.8522 261° West 429 494 38,300 1,000 Climbing Atlanta Center
Wed 17:56:52 36.0247 -82.9964 261° West 434 499 39,300 850 Climbing Atlanta Center
Wed 17:57:52 36.0050 -83.1403 260° West 428 493 40,000 350 Climbing Atlanta Center
Wed 17:58:52 35.9872 -83.2869 262° West 434 499 40,000  Level Atlanta Center
Wed 17:59:52 35.9692 -83.4358 262° West 440 506 40,000  Level Atlanta Center
Wed 18:00:52 35.9469 -83.5872 260° West 447 514 40,000  Level Atlanta Center
Wed 18:01:53 35.9264 -83.7336 260° West 447 514 40,000  Level Atlanta Center
Wed 18:02:52 35.9081 -83.8825 261° West 447 514 40,000  Level Atlanta Center
Wed 18:03:52 35.9164 -84.0389 274° West 447 514 40,000  Level Atlanta Center
Wed 18:04:52 35.9308 -84.1925 277° West 447 514 40,000  Level Atlanta Center
Wed 18:05:52 35.9453 -84.3492 277° West 452 520 40,000  Level Atlanta Center
Wed 18:06:52 35.9614 -84.5031 277° West 457 526 40,000  Level Atlanta Center
Wed 18:07:52 35.9753 -84.6544 277° West 462 532 40,000  Level Atlanta Center
Wed 18:10:19 36.0108 -85.0300 277° West 480 552 40,000  Level Memphis Center
Wed 18:11:18 36.0214 -85.1833 275° West 470 541 40,000  Level Memphis Center
Wed 18:12:18 36.0342 -85.3417 276° West 470 541 40,000  Level Memphis Center
Wed 18:13:18 36.0467 -85.5000 276° West 465 535 40,000  Level Memphis Center
Wed 18:14:18 36.0589 -85.6558 276° West 465 535 40,000  Level Memphis Center
Wed 18:15:18 36.0711 -85.8144 275° West 465 535 40,000  Level Memphis Center
Wed 18:16:18 36.0836 -85.9883 275° West 465 535 40,000  Level Memphis Center
Wed 18:17:18 36.0953 -86.1444 275° West 459 528 40,000  Level Memphis Center
Wed 18:18:18 36.1069 -86.3031 275° West 464 534 40,000  Level Memphis Center
Wed 18:19:18 36.1183 -86.4617 275° West 464 534 40,000  Level Memphis Center
Wed 18:20:18 36.1294 -86.6206 275° West 464 534 40,000  Level Memphis Center
Wed 18:21:18 36.1300 -86.7800 270° West 459 528 40,000  Level Memphis Center
Wed 18:22:18 36.1339 -86.9261 272° West 465 535 40,000  Level Memphis Center
Wed 18:23:18 36.1364 -87.0881 271° West 470 541 40,000  Level Memphis Center
Wed 18:24:18 36.1403 -87.2419 272° West 463 533 40,000  Level Memphis Center
Wed 18:25:18 36.1425 -87.4142 271° West 458 527 40,000  Level Memphis Center
Wed 18:26:19 36.1439 -87.5733 271° West 458 527 40,000  Level Memphis Center
Wed 18:27:18 36.1433 -87.7303 270° West 458 527 40,000  Level Memphis Center
Wed 18:28:18 36.1442 -87.8844 270° West 458 527 40,000  Level Memphis Center
Wed 18:29:18 36.1453 -88.0439 271° West 458 527 40,000  Level Memphis Center
Wed 18:30:18 36.1461 -88.1981 270° West 458 527 40,000  Level Memphis Center
Wed 18:31:18 36.1444 -88.3547 269° West 453 521 40,000  Level Memphis Center
Wed 18:32:18 36.1447 -88.5089 270° West 458 527 40,000  Level Memphis Center
Wed 18:33:18 36.1428 -88.6658 269° West 458 527 40,000  Level Memphis Center
Wed 18:34:19 36.1408 -88.8225 269° West 458 527 40,000  Level Memphis Center
Wed 18:35:18 36.1383 -88.9794 269° West 458 527 40,000  Level Memphis Center
Wed 18:36:19 36.1358 -89.1389 269° West 458 527 40,000  Level Memphis Center
Wed 18:37:19 36.1331 -89.2803 269° West 458 527 40,000  Level Memphis Center
Wed 18:38:19 36.1303 -89.4394 269° West 458 527 40,000  Level Memphis Center
Wed 18:39:19 36.1311 -89.5964 270° West 458 527 40,000  Level Memphis Center
Wed 18:40:19 36.1281 -89.7531 269° West 458 527 40,000  Level Memphis Center
Wed 18:41:18 36.1264 -89.9100 269° West 458 527 40,000  Level Memphis Center
Wed 18:42:19 36.1250 -90.0667 269° West 458 527 40,000  Level Memphis Center
Wed 18:43:19 36.1211 -90.2258 268° West 458 527 40,000  Level Memphis Center
Wed 18:44:19 36.1189 -90.3800 269° West 458 527 40,000  Level Memphis Center
Wed 18:45:19 36.1167 -90.5369 269° West 458 527 40,000  Level Memphis Center
Wed 18:46:19 36.1144 -90.6936 269° West 458 527 40,000  Level Memphis Center
Wed 18:47:19 36.1097 -90.8503 268° West 458 527 40,000  Level Memphis Center
Wed 18:48:19 36.1319 -91.0019 280° West 458 527 40,000  Level Memphis Center
Wed 18:49:19 36.2022 -91.1286 305° West 443 510 40,000  Level Memphis Center
Wed 18:50:19 36.2681 -91.2606 302° West 443 510 40,000  Level Memphis Center
Wed 18:51:19 36.3419 -91.3900 305° West 450 518 40,000  Level Memphis Center
Wed 18:52:19 36.4097 -91.5200 303° West 450 518 40,000  Level Memphis Center
Wed 18:54:19 36.5489 -91.7728 304° West 451 519 40,000  Level Kansas City Center
Wed 18:55:19 36.6197 -91.9083 303° West 450 518 40,000  Level Kansas City Center
Wed 18:56:23 36.6881 -92.0381 303° West 448 516 40,000  Level Kansas City Center
Wed 18:57:24 36.7575 -92.1689 304° West 449 517 40,000  Level Kansas City Center
Wed 18:58:25 36.8250 -92.2986 303° West 447 514 40,000  Level Kansas City Center
Wed 18:59:28 36.9061 -92.4542 303° West 445 512 40,000  Level Kansas City Center
Wed 19:00:29 36.9722 -92.5833 303° West 442 509 40,000 -576 Level Kansas City Center
Wed 19:01:33 37.0383 -92.7111 303° West 439 505 38,800 -1,200 Descending Kansas City Center
Wed 19:02:34 37.1042 -92.8389 303° West 437 503 37,500 -1,180 Descending Kansas City Center
Wed 19:03:35 37.1700 -92.9675 303° West 435 501 36,400 -1,113 Descending Kansas City Center
Wed 19:04:38 37.2367 -93.0978 303° West 437 503 35,200 -1,355 Descending Kansas City Center
Wed 19:05:39 37.3056 -93.2344 302° West 449 517 33,600 -1,476 Descending Kansas City Center
Wed 19:06:44 37.3989 -93.3569 314° West 476 548 32,100 -1,571 Descending Kansas City Center
Wed 19:07:45 37.5525 -93.4428 336° Northwest 491 565 30,300 -1,636 Descending Kansas City Center
Wed 19:08:45 37.6814 -93.5153 336° Northwest 499 574 28,800 -1,452 Descending Kansas City Center
Wed 19:09:49 37.8100 -93.5856 337° Northwest 500 575 27,300 -1,488 Descending Kansas City Center
Wed 19:10:50 37.9342 -93.6569 336° Northwest 492 566 25,700 -1,694 Descending Kansas City Center
Wed 19:11:53 38.0592 -93.7256 337° Northwest 488 562 23,800 -2,081 Descending Kansas City Center
Wed 19:12:54 38.1797 -93.7919 337° Northwest 478 550 21,400 -2,410 Descending Kansas City Center
Wed 19:13:55 38.2917 -93.8564 336° Northwest 455 524 18,900 -2,496 Descending Kansas City Center
Wed 19:14:59 38.4214 -93.9306 336° Northwest 432 497 16,200 -2,323 Descending Kansas City Center
Wed 19:15:59 38.5258 -93.9933 335° Northwest 425 489 14,100 -1,935 Descending Kansas City Center
Wed 19:17:03 38.6247 -94.0506 336° Northwest 412 474 12,200 -1,920 Descending Kansas City Center
Wed 19:18:04 38.6889 -94.1775 303° West 397 457 10,100 -1,065 Descending Kansas City Center
Wed 19:19:07 38.7261 -94.2950 292° West 377 434 10,000 -677 Descending Kansas City Center
Wed 19:20:08 38.7603 -94.3969 293° West 279 321 8,700 -1,475 Descending Kansas City Center
Wed 19:21:09 38.7872 -94.4858 291° West 278 320 7,000 -1,790 Descending Kansas City Center
Wed 19:22:12 38.8147 -94.5700 293° West 270 311 5,000 -1,417 Descending Kansas City Center
Wed 19:23:16 38.8486 -94.6683 294° West 270 311 4,000 -672 Descending Kansas City Center
Wed 19:24:17 38.8728 -94.7414 293° West 238 274 3,600 -694 Descending Kansas City Center
Wed 19:25:17 38.8997 -94.8167 295° West 212 244 2,600 -581 Descending Kansas City Center
Wed 19:26:21 38.8981 -94.8747 268° West 173 199 2,400 -484 Descending Kansas City Center
Wed 19:27:21 38.8586 -94.8928 200° South 137 158 1,600 -585 Descending Kansas City Center
Wed 19:28:24 38.8231 -94.8903 177° South 129 148 1,200 -381 Descending Kansas City Center

Login

Don't have an account? Register now (free) for customized features, flight alerts, and more!